createdAt,value
2023-03-06T00:01:08.728Z,14.43
2023-03-06T00:03:36.938Z,14.68
2023-03-06T00:06:05.589Z,15.77
2023-03-06T00:08:32.786Z,15.45
2023-03-06T00:11:00.255Z,14.27
2023-03-06T00:13:31.102Z,13.77
2023-03-06T00:16:01.171Z,13.30
2023-03-06T00:18:29.416Z,14.02
2023-03-06T00:20:56.679Z,14.20
2023-03-06T00:23:26.111Z,13.27
2023-03-06T00:25:53.221Z,11.55
2023-03-06T00:28:20.287Z,12.02
2023-03-06T00:30:48.706Z,11.60
2023-03-06T00:33:16.425Z,11.90
2023-03-06T00:35:43.545Z,12.88
2023-03-06T00:38:13.231Z,12.70
2023-03-06T00:40:40.748Z,12.77
2023-03-06T00:43:07.957Z,13.27
2023-03-06T00:45:36.109Z,12.68
2023-03-06T00:48:03.300Z,13.23
2023-03-06T00:50:30.566Z,13.75
2023-03-06T00:53:00.222Z,14.85
2023-03-06T00:55:27.517Z,16.15
2023-03-06T00:57:54.672Z,14.25
2023-03-06T01:00:22.046Z,13.98
2023-03-06T01:02:50.219Z,10.27
2023-03-06T01:05:17.471Z,8.63
2023-03-06T01:07:45.165Z,9.55
2023-03-06T01:10:12.625Z,10.32
2023-03-06T01:12:41.268Z,10.52
2023-03-06T01:15:09.625Z,10.82
2023-03-06T01:17:36.871Z,10.65
2023-03-06T01:20:05.327Z,11.55
2023-03-06T01:22:32.827Z,10.50
2023-03-06T01:25:00.088Z,11.45
2023-03-06T01:27:27.277Z,11.52
2023-03-06T01:29:54.569Z,11.30
2023-03-06T01:32:22.125Z,11.88
2023-03-06T01:34:50.289Z,11.38
2023-03-06T01:37:17.821Z,11.20
2023-03-06T01:39:45.183Z,11.48
2023-03-06T01:42:12.459Z,11.20
2023-03-06T01:45:04.447Z,11.65
2023-03-06T01:47:31.813Z,12.10
2023-03-06T01:50:01.350Z,11.20
2023-03-06T01:52:43.457Z,12.15
2023-03-06T01:55:26.459Z,11.75
2023-03-06T01:57:57.979Z,12.60
2023-03-06T02:00:29.739Z,12.95
2023-03-06T02:03:01.690Z,14.00
2023-03-06T02:05:29.050Z,13.68
2023-03-06T02:07:57.419Z,12.82
2023-03-06T02:10:25.190Z,13.85
2023-03-06T02:12:53.349Z,13.45
2023-03-06T02:15:23.023Z,15.00
2023-03-06T02:17:51.501Z,14.77
2023-03-06T02:20:48.894Z,16.05
2023-03-06T02:23:45.933Z,16.88
2023-03-06T02:26:15.657Z,16.65
2023-03-06T02:28:43.273Z,17.90
2023-03-06T02:31:27.841Z,17.20
2023-03-06T02:34:04.990Z,17.58
2023-03-06T02:36:45.918Z,17.73
2023-03-06T02:39:13.797Z,18.35
2023-03-06T02:41:41.152Z,19.08
2023-03-06T02:44:08.886Z,17.95
2023-03-06T02:46:36.304Z,19.30
2023-03-06T02:49:03.520Z,18.73
2023-03-06T02:51:32.086Z,18.27
2023-03-06T02:53:59.305Z,17.13
2023-03-06T02:56:26.525Z,16.85
2023-03-06T02:58:53.759Z,16.50
2023-03-06T03:01:21.391Z,16.08
2023-03-06T03:03:48.492Z,16.27
2023-03-06T03:06:16.360Z,16.42
2023-03-06T03:08:44.420Z,15.07
2023-03-06T03:11:12.740Z,15.95
2023-03-06T03:13:43.576Z,15.40
2023-03-06T03:16:16.759Z,15.85
2023-03-06T03:18:44.726Z,15.40
2023-03-06T03:21:17.430Z,15.52
2023-03-06T03:23:47.055Z,15.15
2023-03-06T03:26:20.686Z,15.45
2023-03-06T03:28:54.676Z,14.95
2023-03-06T03:31:22.769Z,15.00
2023-03-06T03:33:50.464Z,15.63
2023-03-06T03:36:19.688Z,14.73
2023-03-06T03:38:47.907Z,14.10
2023-03-06T03:41:15.444Z,13.77
2023-03-06T03:43:43.240Z,13.70
2023-03-06T03:46:11.705Z,14.20
2023-03-06T03:48:39.455Z,14.20
2023-03-06T03:51:13.411Z,12.70
2023-03-06T03:53:45.813Z,13.05
2023-03-06T03:56:16.061Z,13.85
2023-03-06T03:58:52.690Z,12.98
2023-03-06T04:01:20.210Z,12.93
2023-03-06T04:03:47.662Z,13.25
2023-03-06T04:06:16.145Z,13.48
2023-03-06T04:08:44.483Z,13.52
2023-03-06T04:11:12.075Z,13.40
2023-03-06T04:13:39.830Z,13.43
2023-03-06T04:16:07.714Z,13.98
2023-03-06T04:18:37.049Z,12.77
2023-03-06T04:21:06.653Z,13.32
2023-03-06T04:23:34.289Z,12.80
2023-03-06T04:26:01.922Z,12.68
2023-03-06T04:28:29.416Z,13.13
2023-03-06T04:30:58.024Z,13.43
2023-03-06T04:33:26.083Z,13.00
2023-03-06T04:35:55.256Z,12.52
2023-03-06T04:38:26.874Z,11.95
2023-03-06T04:40:53.997Z,13.57
2023-03-06T04:43:21.477Z,12.00
2023-03-06T04:45:52.137Z,12.88
2023-03-06T04:48:19.426Z,11.60
2023-03-06T04:50:47.545Z,11.10
2023-03-06T04:53:16.303Z,12.10
2023-03-06T04:55:43.470Z,12.73
2023-03-06T04:58:12.537Z,12.10
2023-03-06T05:00:40.040Z,11.30
2023-03-06T05:03:07.125Z,10.90
2023-03-06T05:05:34.287Z,10.80
2023-03-06T05:08:01.585Z,10.90
2023-03-06T05:10:31.392Z,10.85
2023-03-06T05:12:58.744Z,11.38
2023-03-06T05:15:25.869Z,10.95
2023-03-06T05:17:52.965Z,9.98
2023-03-06T05:20:20.237Z,10.48
2023-03-06T05:22:48.568Z,10.00
2023-03-06T05:25:16.884Z,9.57
2023-03-06T05:27:44.022Z,9.40
2023-03-06T05:30:14.525Z,8.93
2023-03-06T05:32:42.011Z,9.15
2023-03-06T05:35:16.004Z,9.07
2023-03-06T05:37:43.251Z,8.35
2023-03-06T05:40:11.596Z,8.45
2023-03-06T05:42:39.464Z,8.32
2023-03-06T05:45:07.141Z,8.23
2023-03-06T05:47:34.273Z,8.68
2023-03-06T05:50:01.361Z,8.27
2023-03-06T05:52:29.202Z,7.95
2023-03-06T05:54:56.253Z,7.40
2023-03-06T05:57:25.139Z,7.78
2023-03-06T05:59:52.248Z,7.93
2023-03-06T06:02:20.005Z,8.13
2023-03-06T06:04:47.439Z,7.47
2023-03-06T06:07:16.380Z,7.85
2023-03-06T06:09:45.771Z,6.97
2023-03-06T06:12:13.991Z,7.20
2023-03-06T06:14:45.175Z,7.80
2023-03-06T06:17:12.822Z,6.80
2023-03-06T06:19:39.918Z,7.68
2023-03-06T06:22:07.265Z,9.50
2023-03-06T06:24:34.472Z,8.77
2023-03-06T06:27:03.838Z,7.60
2023-03-06T06:29:32.724Z,6.65
2023-03-06T06:32:01.206Z,6.22
2023-03-06T06:34:28.688Z,6.20
2023-03-06T06:36:56.140Z,6.85
2023-03-06T06:39:24.700Z,5.90
2023-03-06T06:42:05.943Z,6.03
2023-03-06T06:44:40.262Z,5.32
2023-03-06T06:47:25.063Z,5.90
2023-03-06T06:49:54.985Z,4.93
2023-03-06T06:52:23.818Z,5.57
2023-03-06T06:54:51.672Z,5.60
2023-03-06T06:57:18.900Z,6.18
2023-03-06T06:59:47.084Z,5.88
2023-03-06T07:02:16.301Z,5.53
2023-03-06T07:05:00.198Z,5.80
2023-03-06T07:07:32.009Z,6.38
2023-03-06T07:09:59.311Z,5.15
2023-03-06T07:12:26.398Z,6.18
2023-03-06T07:14:53.784Z,5.93
2023-03-06T07:17:20.976Z,5.32
2023-03-06T07:19:48.679Z,6.60
2023-03-06T07:22:15.862Z,5.80
2023-03-06T07:24:43.086Z,5.10
2023-03-06T07:27:10.221Z,5.80
2023-03-06T07:29:37.363Z,5.25
2023-03-06T07:32:04.776Z,5.30
2023-03-06T07:34:32.093Z,5.32
2023-03-06T07:36:59.290Z,4.80
2023-03-06T07:39:28.504Z,4.60
2023-03-06T07:41:56.781Z,5.15
2023-03-06T07:44:23.801Z,3.95
2023-03-06T07:46:51.206Z,4.50
2023-03-06T07:49:18.824Z,4.10
2023-03-06T07:51:46.432Z,3.50
2023-03-06T07:54:13.924Z,4.25
2023-03-06T07:56:41.211Z,3.78
2023-03-06T07:59:08.295Z,3.50
2023-03-06T08:01:36.546Z,3.85
2023-03-06T08:04:04.106Z,4.03
2023-03-06T08:06:32.311Z,4.03
2023-03-06T08:09:00.141Z,3.85
2023-03-06T08:11:30.094Z,3.65
2023-03-06T08:13:58.197Z,4.10
2023-03-06T08:16:28.980Z,3.53
2023-03-06T08:18:57.190Z,4.00
2023-03-06T08:21:27.436Z,3.90
2023-03-06T08:23:55.115Z,4.05
2023-03-06T08:26:27.993Z,3.08
2023-03-06T08:28:57.592Z,3.33
2023-03-06T08:31:38.758Z,3.10
2023-03-06T08:34:08.339Z,3.13
2023-03-06T08:36:35.843Z,3.20
2023-03-06T08:39:04.408Z,3.35
2023-03-06T08:41:32.767Z,2.88
2023-03-06T08:44:00.256Z,2.45
2023-03-06T08:46:30.383Z,2.95
2023-03-06T08:48:57.794Z,2.53
2023-03-06T08:51:25.178Z,2.55
2023-03-06T08:53:53.092Z,2.92
2023-03-06T08:56:31.873Z,2.45
2023-03-06T08:59:01.285Z,2.63
2023-03-06T09:01:32.718Z,2.55
2023-03-06T09:04:03.807Z,2.60
2023-03-06T09:06:33.637Z,2.80
2023-03-06T09:09:01.184Z,2.80
2023-03-06T09:11:28.852Z,2.78
2023-03-06T09:13:57.299Z,2.63
2023-03-06T09:16:25.154Z,2.70
2023-03-06T09:18:54.189Z,2.35
2023-03-06T09:21:22.619Z,2.40
2023-03-06T09:23:49.940Z,2.35
2023-03-06T09:26:18.115Z,2.30
2023-03-06T09:28:45.793Z,2.10
2023-03-06T09:31:16.233Z,2.00
2023-03-06T09:33:43.599Z,1.85
2023-03-06T09:36:15.978Z,1.80
2023-03-06T09:38:43.538Z,2.00
2023-03-06T09:41:31.853Z,1.73
2023-03-06T09:44:18.077Z,1.80
2023-03-06T09:47:13.650Z,1.67
2023-03-06T09:50:05.785Z,1.40
2023-03-06T09:52:46.137Z,1.50
2023-03-06T09:55:20.865Z,1.63
2023-03-06T09:57:53.713Z,1.50
2023-03-06T10:00:27.066Z,1.70
2023-03-06T10:03:06.438Z,1.90
2023-03-06T10:05:40.580Z,1.88
2023-03-06T10:08:20.250Z,2.08
2023-03-06T10:10:57.748Z,2.58
2023-03-06T10:13:38.206Z,2.67
2023-03-06T10:16:27.200Z,2.75
2023-03-06T10:19:02.129Z,2.80
2023-03-06T10:21:38.469Z,2.60
2023-03-06T10:24:13.740Z,2.60
2023-03-06T10:26:49.703Z,2.85
2023-03-06T10:29:27.706Z,2.15
2023-03-06T10:32:19.865Z,2.50
2023-03-06T10:34:47.455Z,2.40
2023-03-06T10:37:20.977Z,2.30
2023-03-06T10:39:55.450Z,2.60
2023-03-06T10:42:24.574Z,2.60
2023-03-06T10:45:13.506Z,2.90
2023-03-06T10:47:41.675Z,2.45
2023-03-06T10:50:28.003Z,2.80
2023-03-06T10:53:05.264Z,3.15
2023-03-06T10:55:37.974Z,2.88
2023-03-06T10:58:25.611Z,3.30
2023-03-06T11:01:23.546Z,3.33
2023-03-06T11:03:50.724Z,2.90
2023-03-06T11:06:35.905Z,3.38
2023-03-06T11:09:24.851Z,3.00
2023-03-06T11:11:52.813Z,3.60
2023-03-06T11:14:27.566Z,3.42
2023-03-06T11:16:55.011Z,3.20
2023-03-06T11:19:27.658Z,2.80
2023-03-06T11:22:07.127Z,3.10
2023-03-06T11:24:43.534Z,3.30
2023-03-06T11:27:42.836Z,3.05
2023-03-06T11:30:24.320Z,3.00
2023-03-06T11:33:00.548Z,2.72
2023-03-06T11:35:42.622Z,2.83
2023-03-06T11:38:21.009Z,3.30
2023-03-06T11:41:00.054Z,3.50
2023-03-06T11:43:49.732Z,3.20
2023-03-06T11:46:41.977Z,3.60
2023-03-06T11:49:17.389Z,3.65
2023-03-06T11:51:50.183Z,3.35
2023-03-06T11:54:17.506Z,3.60
2023-03-06T11:57:13.130Z,3.35
2023-03-06T12:00:10.827Z,3.50
2023-03-06T12:02:40.888Z,3.80
2023-03-06T12:05:26.690Z,3.70
2023-03-06T12:08:22.498Z,3.83
2023-03-06T12:10:54.638Z,3.65
2023-03-06T12:13:27.911Z,3.50
2023-03-06T12:16:27.113Z,3.90
2023-03-06T12:19:29.711Z,3.75
2023-03-06T12:22:23.645Z,3.88
2023-03-06T12:25:18.384Z,3.70
2023-03-06T12:27:59.355Z,3.80
2023-03-06T12:30:41.583Z,3.58
2023-03-06T12:33:31.374Z,3.50
2023-03-06T12:36:29.967Z,3.70
2023-03-06T12:39:10.798Z,4.22
2023-03-06T12:42:22.870Z,3.35
2023-03-06T12:44:57.181Z,3.30
2023-03-06T12:47:31.657Z,3.90
2023-03-06T12:50:17.441Z,3.50
2023-03-06T12:52:46.684Z,3.30
2023-03-06T12:55:17.386Z,3.40
2023-03-06T12:57:52.046Z,2.88
2023-03-06T13:00:37.790Z,3.40
2023-03-06T13:03:13.872Z,3.42
2023-03-06T13:06:18.421Z,3.03
2023-03-06T13:08:52.901Z,2.75
2023-03-06T13:11:47.411Z,2.60
2023-03-06T13:14:31.092Z,2.70
2023-03-06T13:17:20.606Z,2.83
2023-03-06T13:19:48.735Z,3.20
2023-03-06T13:22:43.189Z,3.13
2023-03-06T13:25:19.665Z,2.90
2023-03-06T13:27:53.272Z,2.75
2023-03-06T13:30:29.374Z,2.88
2023-03-06T13:32:58.998Z,2.53
2023-03-06T13:35:29.827Z,2.72
2023-03-06T13:37:58.416Z,2.72
2023-03-06T13:40:35.809Z,3.15
2023-03-06T13:43:12.418Z,3.03
2023-03-06T13:45:44.456Z,2.97
2023-03-06T13:48:43.134Z,3.10
2023-03-06T13:51:24.064Z,2.83
2023-03-06T13:54:20.126Z,2.72
2023-03-06T13:57:07.874Z,2.58
2023-03-06T13:59:52.352Z,2.70
2023-03-06T14:03:01.771Z,2.90
2023-03-06T14:05:51.798Z,3.10
2023-03-06T14:08:23.114Z,3.35
2023-03-06T14:11:05.688Z,3.40
2023-03-06T14:13:45.440Z,3.45
2023-03-06T14:16:48.681Z,3.60
2023-03-06T14:19:19.337Z,3.67
2023-03-06T14:21:56.630Z,3.83
2023-03-06T14:24:43.759Z,3.70
2023-03-06T14:27:20.303Z,4.10
2023-03-06T14:29:49.933Z,4.20
2023-03-06T14:32:22.089Z,4.47
2023-03-06T14:34:50.122Z,4.40
2023-03-06T14:37:24.718Z,4.70
2023-03-06T14:39:52.824Z,4.50
2023-03-06T14:42:21.241Z,4.15
2023-03-06T14:44:59.827Z,3.97
2023-03-06T14:47:28.453Z,4.50
2023-03-06T14:50:32.929Z,4.80
2023-03-06T14:53:20.224Z,3.90
2023-03-06T14:55:56.054Z,4.22
2023-03-06T14:59:00.646Z,4.18
2023-03-06T15:01:45.673Z,3.90
2023-03-06T15:04:19.496Z,4.55
2023-03-06T15:06:47.993Z,5.20
2023-03-06T15:09:24.676Z,4.40
2023-03-06T15:12:20.990Z,5.30
2023-03-06T15:14:58.579Z,5.32
2023-03-06T15:17:29.970Z,5.53
2023-03-06T15:19:59.528Z,4.55
2023-03-06T15:22:30.651Z,4.65
2023-03-06T15:25:30.266Z,4.43
2023-03-06T15:28:02.602Z,4.32
2023-03-06T15:30:37.715Z,4.35
2023-03-06T15:35:58.885Z,4.68
2023-03-06T15:38:46.935Z,5.00
2023-03-06T15:41:28.357Z,4.45
2023-03-06T15:43:58.410Z,4.35
2023-03-06T15:46:25.837Z,4.30
2023-03-06T15:48:56.839Z,4.20
2023-03-06T15:51:24.807Z,4.10
2023-03-06T15:53:55.020Z,3.85
2023-03-06T15:56:29.642Z,4.03
2023-03-06T15:58:58.553Z,4.30
2023-03-06T16:01:26.022Z,3.90
2023-03-06T16:03:53.303Z,4.20
2023-03-06T16:06:24.435Z,4.10
2023-03-06T16:08:52.936Z,3.90
2023-03-06T16:11:32.489Z,3.92
2023-03-06T16:14:02.735Z,3.95
2023-03-06T16:16:36.735Z,3.65
2023-03-06T16:19:14.015Z,3.80
2023-03-06T16:21:47.772Z,3.88
2023-03-06T16:24:16.501Z,3.53
2023-03-06T16:26:46.605Z,3.45
2023-03-06T16:29:25.189Z,3.38
2023-03-06T16:31:52.852Z,3.55
2023-03-06T16:34:20.075Z,3.78
2023-03-06T16:36:49.363Z,3.65
2023-03-06T16:39:19.410Z,3.40
2023-03-06T16:41:46.704Z,3.80
2023-03-06T16:44:14.129Z,3.38
2023-03-06T16:46:47.192Z,3.83
2023-03-06T16:49:20.748Z,4.45
2023-03-06T16:51:48.422Z,3.90
2023-03-06T16:54:15.731Z,3.78
2023-03-06T16:56:43.251Z,3.78
2023-03-06T16:59:11.227Z,4.00
2023-03-06T17:01:43.138Z,3.70
2023-03-06T17:04:11.898Z,3.85
2023-03-06T17:06:39.804Z,3.88
2023-03-06T17:09:07.268Z,3.65
2023-03-06T17:11:36.414Z,3.70
2023-03-06T17:14:03.867Z,4.00
2023-03-06T17:16:31.065Z,3.55
2023-03-06T17:18:58.360Z,4.22
2023-03-06T17:21:27.069Z,4.05
2023-03-06T17:23:54.539Z,4.00
2023-03-06T17:26:21.946Z,3.72
2023-03-06T17:28:49.410Z,3.60
2023-03-06T17:31:26.801Z,4.22
2023-03-06T17:33:59.571Z,3.90
2023-03-06T17:36:31.239Z,3.53
2023-03-06T17:39:00.526Z,4.20
2023-03-06T17:41:29.139Z,4.13
2023-03-06T17:43:58.454Z,3.83
2023-03-06T17:46:25.876Z,3.85
2023-03-06T17:48:53.017Z,3.78
2023-03-06T17:51:20.238Z,3.45
2023-03-06T17:53:47.703Z,3.92
2023-03-06T17:56:15.687Z,3.80
2023-03-06T17:58:42.709Z,4.10
2023-03-06T18:01:15.902Z,4.10
2023-03-06T18:03:45.242Z,4.03
2023-03-06T18:06:12.771Z,3.90
2023-03-06T18:08:41.245Z,3.72
2023-03-06T18:11:10.598Z,4.10
2023-03-06T18:13:40.742Z,4.07
2023-03-06T18:16:09.218Z,4.40
2023-03-06T18:18:36.516Z,4.03
2023-03-06T18:21:07.249Z,4.32
2023-03-06T18:23:36.113Z,4.20
2023-03-06T18:26:19.504Z,4.40
2023-03-06T18:28:48.985Z,4.22
2023-03-06T18:31:33.708Z,3.92
2023-03-06T18:36:32.054Z,4.10
2023-03-06T18:39:00.991Z,4.03
2023-03-06T18:41:28.103Z,3.85
2023-03-06T18:43:56.700Z,4.55
2023-03-06T18:46:26.306Z,4.47
2023-03-06T18:48:54.809Z,4.15
2023-03-06T18:51:22.013Z,4.40
2023-03-06T18:53:49.221Z,4.60
2023-03-06T18:56:22.016Z,4.75
2023-03-06T18:58:51.324Z,4.13
2023-03-06T19:01:18.932Z,3.70
2023-03-06T19:03:46.794Z,4.05
2023-03-06T19:06:17.174Z,4.28
2023-03-06T19:08:44.835Z,4.60
2023-03-06T19:11:14.641Z,4.15
2023-03-06T19:13:42.855Z,4.32
2023-03-06T19:16:17.593Z,3.78
2023-03-06T19:18:44.947Z,4.32
2023-03-06T19:21:18.510Z,4.32
2023-03-06T19:23:46.371Z,4.82
2023-03-06T19:26:14.050Z,4.70
2023-03-06T19:28:42.781Z,5.10
2023-03-06T19:31:11.099Z,4.20
2023-03-06T19:33:38.305Z,4.72
2023-03-06T19:36:07.090Z,5.00
2023-03-06T19:38:34.382Z,4.50
2023-03-06T19:41:03.922Z,4.45
2023-03-06T19:43:31.234Z,4.70
2023-03-06T19:45:58.788Z,4.22
2023-03-06T19:48:25.891Z,4.30
2023-03-06T19:50:52.956Z,4.50
2023-03-06T19:53:20.187Z,4.55
2023-03-06T19:55:47.318Z,3.85
2023-03-06T19:58:14.511Z,4.40
2023-03-06T20:00:42.086Z,4.45
2023-03-06T20:03:09.306Z,4.28
2023-03-06T20:05:36.686Z,3.80
2023-03-06T20:08:04.341Z,3.88
2023-03-06T20:10:31.420Z,4.38
2023-03-06T20:12:58.843Z,4.28
2023-03-06T20:15:28.173Z,3.80
2023-03-06T20:17:56.796Z,4.40
2023-03-06T20:20:24.925Z,4.25
2023-03-06T20:22:51.988Z,4.40
2023-03-06T20:25:20.589Z,4.43
2023-03-06T20:27:47.732Z,4.38
2023-03-06T20:30:14.962Z,4.30
2023-03-06T20:32:43.293Z,4.50
2023-03-06T20:35:10.529Z,4.43
2023-03-06T20:37:38.975Z,4.53
2023-03-06T20:40:08.728Z,4.47
2023-03-06T20:42:36.069Z,5.18
2023-03-06T20:45:03.305Z,4.90
2023-03-06T20:47:31.828Z,4.55
2023-03-06T20:49:58.945Z,5.05
2023-03-06T20:52:26.109Z,5.00
2023-03-06T20:54:53.290Z,5.05
2023-03-06T20:57:20.398Z,5.13
2023-03-06T20:59:47.485Z,5.72
2023-03-06T21:02:15.115Z,6.50
2023-03-06T21:04:42.508Z,5.75
2023-03-06T21:07:09.585Z,5.57
2023-03-06T21:09:38.121Z,5.25
2023-03-06T21:12:06.242Z,5.95
2023-03-06T21:14:33.329Z,6.25
2023-03-06T21:17:01.398Z,5.85
2023-03-06T21:19:28.523Z,5.68
2023-03-06T21:21:55.782Z,5.10
2023-03-06T21:24:22.904Z,5.18
2023-03-06T21:26:51.403Z,5.53
2023-03-06T21:29:18.624Z,5.75
2023-03-06T21:31:45.865Z,5.50
2023-03-06T21:34:13.275Z,6.10
2023-03-06T21:36:40.492Z,5.53
2023-03-06T21:39:07.652Z,5.32
2023-03-06T21:41:35.136Z,5.75
2023-03-06T21:44:05.439Z,5.65
2023-03-06T21:46:35.548Z,6.03
2023-03-06T21:49:04.858Z,6.50
2023-03-06T21:51:32.610Z,6.18
2023-03-06T21:53:59.692Z,5.60
2023-03-06T21:56:28.559Z,6.63
2023-03-06T21:58:56.626Z,6.07
2023-03-06T22:01:26.810Z,6.10
2023-03-06T22:03:54.228Z,5.95
2023-03-06T22:06:25.290Z,6.68
2023-03-06T22:08:54.287Z,6.15
2023-03-06T22:11:23.196Z,5.72
2023-03-06T22:13:53.316Z,6.30
2023-03-06T22:16:21.062Z,7.18
2023-03-06T22:18:50.413Z,6.43
2023-03-06T22:21:20.134Z,7.10
2023-03-06T22:23:50.594Z,6.20
2023-03-06T22:26:18.306Z,6.25
2023-03-06T22:28:45.627Z,6.32
2023-03-06T22:31:15.830Z,6.53
2023-03-06T22:33:43.666Z,6.38
2023-03-06T22:36:13.706Z,6.38
2023-03-06T22:38:43.288Z,6.88
2023-03-06T22:41:12.334Z,6.65
2023-03-06T22:43:39.760Z,6.45
2023-03-06T22:46:09.840Z,6.00
2023-03-06T22:48:37.113Z,7.40
2023-03-06T22:51:09.536Z,5.85
2023-03-06T22:53:37.617Z,5.35
2023-03-06T22:56:08.491Z,5.00
2023-03-06T22:58:39.604Z,6.55
2023-03-06T23:01:08.778Z,6.32
2023-03-06T23:03:37.975Z,6.43
2023-03-06T23:06:09.282Z,6.55
2023-03-06T23:08:36.363Z,6.03
2023-03-06T23:11:09.043Z,6.22
2023-03-06T23:13:55.543Z,7.20
2023-03-06T23:16:41.604Z,8.30
2023-03-06T23:19:27.355Z,7.45
2023-03-06T23:22:14.525Z,8.75
2023-03-06T23:25:00.862Z,9.20
2023-03-06T23:27:29.523Z,9.38
2023-03-06T23:29:59.177Z,9.23
2023-03-06T23:32:26.517Z,9.52
2023-03-06T23:34:53.788Z,10.45
2023-03-06T23:37:20.879Z,10.90
2023-03-06T23:39:48.496Z,10.50
2023-03-06T23:42:15.579Z,10.50
2023-03-06T23:44:43.025Z,10.10
2023-03-06T23:47:10.558Z,10.82
2023-03-06T23:49:37.863Z,9.60
2023-03-06T23:52:05.118Z,9.68
2023-03-06T23:54:34.460Z,9.73
2023-03-06T23:57:01.624Z,9.57
2023-03-06T23:59:28.981Z,10.10
